Time;durP1;ratioP1;P1;durP2;ratioP2;P2;SDS_P1;SDS_P2;PMS_P1;PMS_P2;Temp;Humidity;BMP_temperature;BMP_pressure;BME280_temperature;BME280_humidity;BME280_pressure;Samples;Min_cycle;Max_cycle;Signal;HPM_P1;HPM_P2
2021/12/22 00:01:59;;;;;;;26.88;16.65;;;;;;;6.98;66.96;102078.28;5031394;28;20498;-69
2021/12/22 00:04:26;;;;;;;31.55;18.00;;;;;;;6.97;67.04;102088.72;5033482;28;20048;-67
2021/12/22 00:06:53;;;;;;;28.45;17.08;;;;;;;6.95;67.20;102077.47;5033457;28;20099;-70
2021/12/22 00:09:20;;;;;;;29.67;17.00;;;;;;;6.95;67.17;102080.09;5033567;28;20107;-67
2021/12/22 00:11:48;;;;;;;32.85;17.30;;;;;;;6.95;67.20;102077.47;5032342;28;20111;-66
2021/12/22 00:14:16;;;;;;;28.20;17.38;;;;;;;6.95;67.24;102090.53;5033474;28;20516;-67
2021/12/22 00:16:43;;;;;;;29.73;17.27;;;;;;;6.94;67.34;102078.34;5033307;28;20051;-67
2021/12/22 00:19:09;;;;;;;25.52;17.05;;;;;;;6.92;67.14;102072.28;5033141;28;20046;-66
2021/12/22 00:21:36;;;;;;;27.23;17.10;;;;;;;6.89;67.47;102070.59;5033262;28;20038;-66
2021/12/22 00:24:03;;;;;;;25.80;17.02;;;;;;;6.88;67.32;102076.72;5033182;28;20103;-66
2021/12/22 00:26:31;;;;;;;30.20;16.50;;;;;;;6.86;67.26;102073.28;5032355;28;20073;-69
2021/12/22 00:28:57;;;;;;;25.70;16.52;;;;;;;6.82;67.41;102089.91;5024153;28;20046;-70
2021/12/22 00:31:24;;;;;;;25.20;15.73;;;;;;;6.76;67.52;102083.03;5033071;28;20045;-67
2021/12/22 00:33:53;;;;;;;25.15;16.17;;;;;;;6.76;67.23;102083.03;5033023;28;20397;-66
2021/12/22 00:36:23;;;;;;;26.15;15.48;;;;;;;6.75;67.47;102088.28;5032869;28;20042;-69
2021/12/22 00:38:51;;;;;;;25.55;15.63;;;;;;;6.73;67.41;102079.63;5032505;28;20049;-66
2021/12/22 00:41:18;;;;;;;26.80;15.85;;;;;;;6.73;67.34;102080.50;5032961;28;20045;-67
2021/12/22 00:43:44;;;;;;;23.38;15.63;;;;;;;6.71;67.35;102079.66;5031746;28;20045;-66
2021/12/22 00:46:13;;;;;;;27.75;17.38;;;;;;;6.70;67.44;102077.94;5033011;28;20383;-66
2021/12/22 00:48:40;;;;;;;28.17;17.33;;;;;;;6.66;67.53;102071.91;5018926;28;20096;-70
2021/12/22 00:51:07;;;;;;;26.08;16.80;;;;;;;6.64;67.60;102072.81;5032855;28;20099;-69
2021/12/22 00:53:34;;;;;;;31.08;17.13;;;;;;;6.61;67.64;102073.75;5032461;28;20049;-66
2021/12/22 00:56:03;;;;;;;27.20;16.10;;;;;;;6.59;67.62;102070.31;5032594;28;20053;-70
2021/12/22 00:58:29;;;;;;;27.33;16.73;;;;;;;6.57;67.43;102079.91;5032460;28;20053;-66
2021/12/22 01:00:56;;;;;;;24.73;14.23;;;;;;;6.57;67.28;102072.09;5031560;28;20053;-66
2021/12/22 01:03:23;;;;;;;25.88;14.40;;;;;;;6.50;67.16;102079.16;5032605;28;20045;-67
2021/12/22 01:05:50;;;;;;;24.45;15.25;;;;;;;6.50;67.11;102079.16;5032305;28;20525;-66
2021/12/22 01:08:17;;;;;;;24.55;14.93;;;;;;;6.46;66.85;102077.50;5032515;28;20099;-66
2021/12/22 01:10:44;;;;;;;20.30;13.93;;;;;;;6.43;66.67;102079.31;5032561;28;20052;-68
2021/12/22 01:13:12;;;;;;;26.13;14.60;;;;;;;6.40;66.49;102079.34;5032149;28;20045;-70
2021/12/22 01:15:40;;;;;;;24.83;14.70;;;;;;;6.36;66.21;102074.19;5032419;28;20065;-67
2021/12/22 01:18:14;;;;;;;27.00;14.88;;;;;;;6.32;66.26;102077.75;5031151;28;20469;-66
2021/12/22 01:23:19;;;;;;;20.45;13.50;;;;;;;6.28;66.17;102072.63;5032353;28;20052;-70
2021/12/22 01:25:48;;;;;;;24.45;15.23;;;;;;;6.28;66.09;102076.06;5032282;28;20068;-66
2021/12/22 01:28:23;;;;;;;25.35;15.10;;;;;;;6.28;65.98;102077.81;5032118;28;20045;-70
2021/12/22 01:30:50;;;;;;;26.23;14.38;;;;;;;6.26;65.83;102076.97;5032178;28;20057;-69
2021/12/22 01:33:17;;;;;;;23.73;14.45;;;;;;;6.25;65.77;102072.66;5031218;28;20481;-67
2021/12/22 01:35:44;;;;;;;25.27;15.57;;;;;;;6.24;65.62;102070.94;5032098;28;20045;-66
2021/12/22 01:38:12;;;;;;;21.98;14.07;;;;;;;6.21;65.65;102074.47;5031760;28;20064;-67
2021/12/22 01:40:43;;;;;;;22.23;14.85;;;;;;;6.20;65.49;102077.97;5032085;28;20498;-66
2021/12/22 01:43:13;;;;;;;25.10;13.93;;;;;;;6.22;65.57;102083.97;5032102;28;20046;-69
2021/12/22 01:46:20;;;;;;;24.27;14.20;;;;;;;6.17;65.42;102081.47;5032126;28;20037;-65
2021/12/22 01:49:14;;;;;;;24.23;14.25;;;;;;;6.19;65.55;102084.06;5031719;28;20054;-66
2021/12/22 01:52:01;;;;;;;26.48;13.73;;;;;;;6.19;65.27;102089.25;5030903;28;20100;-66
2021/12/22 01:54:45;;;;;;;22.08;14.32;;;;;;;6.23;65.19;102090.06;5032158;28;20049;-67
2021/12/22 01:57:14;;;;;;;25.65;13.85;;;;;;;6.23;64.91;102090.91;5031907;28;20096;-67
2021/12/22 01:59:44;;;;;;;22.70;14.13;;;;;;;6.22;65.12;102097.03;5031862;28;20050;-66
2021/12/22 02:02:13;;;;;;;21.15;12.30;;;;;;;6.21;64.87;102096.16;5031931;28;20045;-68
2021/12/22 02:04:41;;;;;;;20.27;12.13;;;;;;;6.23;64.66;102100.50;5032181;28;20060;-67
2021/12/22 02:07:09;;;;;;;19.30;12.10;;;;;;;6.20;64.55;102097.06;5031872;28;20056;-67
2021/12/22 02:12:21;;;;;;;20.27;12.07;;;;;;;6.12;64.57;102098.94;5031187;28;20057;-66
2021/12/22 02:14:47;;;;;;;19.42;12.60;;;;;;;6.08;64.62;102099.84;5031269;28;20049;-66
2021/12/22 02:17:14;;;;;;;20.77;12.98;;;;;;;6.02;64.65;102098.22;5031960;28;20398;-66
2021/12/22 02:19:43;;;;;;;20.35;13.45;;;;;;;6.00;64.66;102092.16;5031612;28;20053;-66
2021/12/22 02:22:13;;;;;;;21.75;13.00;;;;;;;5.99;64.52;102093.06;5031609;28;20049;-66
2021/12/22 02:24:48;;;;;;;19.88;12.40;;;;;;;5.98;64.41;102099.16;5031658;28;20516;-66
2021/12/22 02:27:38;;;;;;;22.73;13.38;;;;;;;5.94;64.66;102101.78;5035679;28;20045;-66
2021/12/22 02:30:13;;;;;;;19.85;13.05;;;;;;;5.90;64.50;102095.75;5021576;28;20049;-67
2021/12/22 02:35:11;;;;;;;19.90;12.27;;;;;;;5.87;64.68;102101.03;5035180;28;20490;-67
2021/12/22 02:37:44;;;;;;;22.13;12.25;;;;;;;5.82;64.59;102102.84;5035112;28;20057;-70
2021/12/22 02:40:17;;;;;;;19.25;12.48;;;;;;;5.80;64.71;102094.19;5035145;28;20510;-66
2021/12/22 02:42:46;;;;;;;17.52;12.45;;;;;;;5.80;64.60;102092.44;5034191;28;20045;-67
2021/12/22 02:45:18;;;;;;;22.00;13.70;;;;;;;5.81;64.76;102094.16;5035083;28;20041;-69
2021/12/22 02:47:45;;;;;;;20.92;13.82;;;;;;;5.80;64.83;102092.44;5034982;28;20069;-68
2021/12/22 02:50:15;;;;;;;21.20;12.68;;;;;;;5.76;64.93;102089.91;5034966;28;20050;-66
2021/12/22 02:55:53;;;;;;;20.55;12.13;;;;;;;5.68;65.01;102090.88;5012936;28;20108;-66
2021/12/22 02:58:40;;;;;;;18.75;11.70;;;;;;;5.68;65.00;102100.44;5011749;28;20057;-66
2021/12/22 03:01:25;;;;;;;21.67;11.98;;;;;;;5.67;65.09;102098.72;5027419;28;20050;-66
2021/12/22 03:04:30;;;;;;;20.58;12.32;;;;;;;5.65;64.92;102101.34;5034662;28;20395;-67
2021/12/22 03:07:01;;;;;;;20.60;12.02;;;;;;;5.66;65.00;102104.78;5033422;28;20045;-66
2021/12/22 03:09:31;;;;;;;20.95;12.77;;;;;;;5.68;65.03;102108.25;5034642;28;20037;-66
2021/12/22 03:12:02;;;;;;;20.02;12.45;;;;;;;5.64;65.11;102104.81;5034573;28;20045;-66
2021/12/22 03:14:29;;;;;;;21.02;12.43;;;;;;;5.64;65.04;102102.22;5034509;28;20092;-66
2021/12/22 03:16:57;;;;;;;18.83;12.27;;;;;;;5.63;65.23;102100.50;5033453;28;20044;-66
2021/12/22 03:19:26;;;;;;;21.05;12.13;;;;;;;5.62;65.15;102098.75;5034293;28;20103;-67
2021/12/22 03:21:59;;;;;;;22.30;12.60;;;;;;;5.59;65.33;102101.41;5034400;28;20060;-70
2021/12/22 03:24:28;;;;;;;16.60;11.75;;;;;;;5.56;65.48;102094.50;5034411;28;20055;-66
2021/12/22 03:26:58;;;;;;;22.88;13.05;;;;;;;5.55;65.41;102099.75;5034253;28;20502;-67
2021/12/22 03:29:24;;;;;;;20.80;12.60;;;;;;;5.50;65.55;102104.16;5034287;28;20066;-66
2021/12/22 03:31:51;;;;;;;20.38;11.95;;;;;;;5.49;65.60;102111.09;5034305;28;20045;-68
2021/12/22 03:34:18;;;;;;;17.95;12.25;;;;;;;5.50;65.46;102102.41;5033542;28;20041;-67
2021/12/22 03:36:45;;;;;;;22.40;13.32;;;;;;;5.47;65.40;102101.59;5033443;28;20046;-66
2021/12/22 03:39:13;;;;;;;19.80;13.02;;;;;;;5.45;65.66;102100.75;5033933;28;20053;-67
2021/12/22 03:41:42;;;;;;;20.73;12.43;;;;;;;5.45;65.61;102106.81;5033974;28;20041;-70
2021/12/22 03:44:10;;;;;;;20.63;13.38;;;;;;;5.43;65.54;102103.34;5034141;28;20072;-66
2021/12/22 03:46:38;;;;;;;23.27;13.23;;;;;;;5.43;65.71;102103.34;5033928;28;20045;-67
2021/12/22 03:49:07;;;;;;;21.58;12.82;;;;;;;5.43;65.80;102100.75;5033074;28;20053;-66
2021/12/22 03:51:36;;;;;;;20.88;13.57;;;;;;;5.42;65.64;102104.22;5033467;28;20053;-67
2021/12/22 03:54:04;;;;;;;20.80;14.57;;;;;;;5.40;65.88;102104.25;5033793;28;20053;-67
2021/12/22 03:56:31;;;;;;;24.33;12.85;;;;;;;5.40;65.83;102106.00;5034021;28;20102;-70
2021/12/22 03:58:58;;;;;;;21.45;12.85;;;;;;;5.36;65.78;102106.94;5033648;28;20054;-66
2021/12/22 04:01:25;;;;;;;25.80;13.30;;;;;;;5.38;65.98;102107.75;5033758;28;20456;-68
2021/12/22 04:03:57;;;;;;;24.05;13.18;;;;;;;5.36;65.79;102102.59;5028294;28;20045;-67
2021/12/22 04:06:24;;;;;;;21.65;12.48;;;;;;;5.33;65.99;102104.38;5030405;28;20445;-66
2021/12/22 04:08:51;;;;;;;32.72;14.25;;;;;;;5.33;65.78;102106.97;5029332;28;20049;-66
2021/12/22 04:11:17;;;;;;;20.65;13.05;;;;;;;5.31;66.08;102117.41;5030039;28;20099;-66
2021/12/22 04:13:44;;;;;;;22.67;12.77;;;;;;;5.33;65.94;102119.97;5030167;28;20050;-66
2021/12/22 04:16:11;;;;;;;30.63;13.60;;;;;;;5.32;65.74;102121.72;5030262;28;20045;-67
2021/12/22 04:18:38;;;;;;;28.10;13.32;;;;;;;5.34;65.80;102129.50;5030120;28;20402;-66
2021/12/22 04:21:05;;;;;;;25.25;13.50;;;;;;;5.33;65.87;102126.06;5029494;28;20046;-65
2021/12/22 04:23:31;;;;;;;26.70;13.27;;;;;;;5.35;65.93;102121.69;5029049;28;20053;-70
2021/12/22 04:25:58;;;;;;;22.20;13.30;;;;;;;5.36;65.84;102126.00;5029646;28;20105;-66
2021/12/22 04:28:25;;;;;;;25.65;13.43;;;;;;;5.34;65.85;102134.72;5030025;28;20091;-70
2021/12/22 04:30:51;;;;;;;21.30;13.25;;;;;;;5.36;65.78;102130.38;5029742;28;20046;-66
2021/12/22 04:33:19;;;;;;;22.80;13.55;;;;;;;5.37;65.90;102143.34;5029912;28;20387;-69
2021/12/22 04:35:48;;;;;;;22.92;14.02;;;;;;;5.36;65.83;102135.56;5029943;28;20049;-67
2021/12/22 04:38:15;;;;;;;23.85;13.65;;;;;;;5.30;66.20;102133.91;5028354;28;20050;-66
2021/12/22 04:40:42;;;;;;;21.67;13.30;;;;;;;5.28;66.07;102138.28;5029398;28;20057;-66
2021/12/22 04:43:09;;;;;;;22.98;12.88;;;;;;;5.29;66.26;102131.31;5029452;28;20050;-66
2021/12/22 04:45:36;;;;;;;20.45;13.55;;;;;;;5.30;66.14;102140.84;5029782;28;20042;-66
2021/12/22 04:48:03;;;;;;;21.75;14.55;;;;;;;5.29;66.13;102139.97;5029236;28;20049;-70
2021/12/22 04:50:32;;;;;;;25.25;14.07;;;;;;;5.28;66.18;102140.88;5029749;28;20063;-66
2021/12/22 04:53:04;;;;;;;23.08;13.60;;;;;;;5.29;66.15;102139.97;5029079;28;20052;-66
2021/12/22 04:55:31;;;;;;;28.70;14.55;;;;;;;5.28;66.21;102140.00;5028513;28;20041;-66
2021/12/22 04:57:59;;;;;;;29.27;14.32;;;;;;;5.25;66.33;102145.25;5029513;28;20053;-70
2021/12/22 05:00:30;;;;;;;29.70;15.05;;;;;;;5.18;66.41;102140.13;5029175;28;20050;-68
2021/12/22 05:02:57;;;;;;;26.92;14.57;;;;;;;5.15;66.37;102139.28;5029169;28;20049;-67
2021/12/22 05:05:26;;;;;;;23.55;13.95;;;;;;;5.12;66.60;102142.78;5029227;28;20041;-66
2021/12/22 05:07:53;;;;;;;23.38;12.77;;;;;;;5.10;66.43;102149.72;5028640;28;20056;-66
2021/12/22 05:10:21;;;;;;;19.02;13.05;;;;;;;5.07;66.33;102153.22;5029470;28;20065;-69
2021/12/22 05:12:48;;;;;;;25.48;13.88;;;;;;;5.02;66.28;102147.22;5027957;28;20051;-66
2021/12/22 05:15:20;;;;;;;19.15;13.45;;;;;;;5.00;66.27;102159.41;5029207;28;20390;-66
2021/12/22 05:20:18;;;;;;;22.75;12.80;;;;;;;4.94;66.47;102148.16;5028877;28;20099;-66
2021/12/22 05:22:45;;;;;;;20.88;12.70;;;;;;;4.88;66.15;102155.16;5028646;28;20041;-66
2021/12/22 05:25:12;;;;;;;23.75;13.48;;;;;;;4.88;66.23;102160.38;5029031;28;20076;-66
2021/12/22 05:27:39;;;;;;;21.58;13.15;;;;;;;4.86;66.10;102158.66;5028944;28;20053;-67
2021/12/22 05:30:08;;;;;;;20.00;13.23;;;;;;;4.83;66.12;102169.94;5027880;28;20654;-64
2021/12/22 05:32:36;;;;;;;23.80;12.57;;;;;;;4.80;66.28;102162.19;5028905;28;20092;-66
2021/12/22 05:35:05;;;;;;;18.45;12.43;;;;;;;4.77;65.86;102162.19;5028516;28;20053;-63
2021/12/22 05:37:33;;;;;;;18.42;12.18;;;;;;;4.74;65.94;102157.91;5028587;28;20054;-64
2021/12/22 05:39:59;;;;;;;24.63;13.00;;;;;;;4.74;66.18;102159.66;5028577;28;20046;-63
2021/12/22 05:42:27;;;;;;;19.75;12.90;;;;;;;4.70;66.14;102168.34;5029063;28;20049;-67
2021/12/22 05:44:54;;;;;;;26.27;12.98;;;;;;;4.65;66.08;102170.13;5027975;28;20061;-66
2021/12/22 05:47:20;;;;;;;23.67;12.23;;;;;;;4.65;66.06;102177.94;5028860;28;20056;-66
2021/12/22 05:49:49;;;;;;;22.73;12.88;;;;;;;4.61;65.92;102179.69;5028390;28;20456;-68
2021/12/22 05:52:16;;;;;;;26.88;12.63;;;;;;;4.56;65.96;102171.09;5028618;28;20125;-64
2021/12/22 05:54:45;;;;;;;23.02;12.68;;;;;;;4.53;65.86;102173.69;5029343;28;20135;-63
2021/12/22 05:57:12;;;;;;;21.50;12.10;;;;;;;4.47;65.78;102181.53;5028362;28;20046;-65
2021/12/22 05:59:39;;;;;;;27.08;12.13;;;;;;;4.43;65.82;102185.88;5030216;28;20046;-66
2021/12/22 06:02:05;;;;;;;22.85;11.82;;;;;;;4.41;65.65;102192.84;5031599;28;20580;-61
2021/12/22 06:04:32;;;;;;;20.08;11.52;;;;;;;4.42;65.35;102197.19;5032508;28;20129;-61
2021/12/22 06:06:59;;;;;;;18.25;11.35;;;;;;;4.39;65.19;102198.06;5032253;28;20049;-61
2021/12/22 06:09:32;;;;;;;20.50;10.70;;;;;;;4.39;65.28;102204.97;5032436;28;20048;-60
2021/12/22 06:12:01;;;;;;;19.20;12.25;;;;;;;4.34;65.24;102199.84;5032397;28;20057;-60
2021/12/22 06:14:28;;;;;;;24.40;11.52;;;;;;;4.34;65.21;102209.34;5032604;28;20051;-60
2021/12/22 06:16:54;;;;;;;24.30;10.88;;;;;;;4.30;65.22;102216.31;5031964;28;20053;-60
2021/12/22 06:19:21;;;;;;;21.52;10.52;;;;;;;4.27;65.07;102207.66;5030029;28;20041;-60
2021/12/22 06:21:50;;;;;;;23.92;11.45;;;;;;;4.20;64.88;102209.44;5032110;28;20045;-60
2021/12/22 06:24:17;;;;;;;25.63;11.65;;;;;;;4.16;65.05;102215.53;5032054;28;20045;-60
2021/12/22 06:26:44;;;;;;;17.38;11.20;;;;;;;4.17;64.96;102217.28;5031858;28;20045;-60
2021/12/22 06:29:10;;;;;;;26.40;12.15;;;;;;;4.15;64.68;102213.81;5034733;28;20037;-60
2021/12/22 06:31:37;;;;;;;21.05;11.80;;;;;;;4.17;64.62;102218.13;5048471;28;20075;-64
2021/12/22 06:34:04;;;;;;;18.40;10.80;;;;;;;4.18;64.41;102214.66;5031921;28;20557;-60
2021/12/22 06:36:32;;;;;;;21.42;11.48;;;;;;;4.16;64.60;102211.19;5031043;28;20052;-60
2021/12/22 06:38:59;;;;;;;24.23;11.98;;;;;;;4.16;64.40;102208.59;5021135;28;20115;-60
2021/12/22 06:41:26;;;;;;;25.02;11.95;;;;;;;4.15;64.26;102203.41;5031681;28;20052;-61
2021/12/22 06:43:53;;;;;;;26.20;11.90;;;;;;;4.16;64.43;102207.75;5031494;28;20041;-60
2021/12/22 06:46:19;;;;;;;19.25;11.55;;;;;;;4.12;64.31;102212.09;5031731;28;20045;-60
2021/12/22 06:48:46;;;;;;;21.95;12.57;;;;;;;4.14;64.16;102212.06;5028340;28;20042;-60
2021/12/22 06:51:13;;;;;;;20.17;11.43;;;;;;;4.12;64.32;102216.44;5039944;28;20049;-59
2021/12/22 06:53:40;;;;;;;23.77;7.93;;;;;;;4.95;64.08;102214.94;5031401;28;20091;-56
2021/12/22 06:56:06;;;;;;;27.77;12.73;;;;;;;5.06;64.46;102211.34;5030522;28;20433;-62
2021/12/22 06:58:33;;;;;;;28.17;12.52;;;;;;;4.76;65.41;102212.47;5031392;28;20041;-66
2021/12/22 07:01:00;;;;;;;24.65;12.38;;;;;;;4.59;65.50;102217.84;5031560;28;20049;-62
2021/12/22 07:03:28;;;;;;;23.83;12.02;;;;;;;4.47;65.30;102218.81;5030324;28;20553;-62
2021/12/22 07:05:54;;;;;;;25.75;12.25;;;;;;;4.36;65.38;102221.47;5030910;28;20115;-62
2021/12/22 07:08:21;;;;;;;25.02;13.32;;;;;;;4.30;65.36;102234.50;5031193;28;20045;-62
2021/12/22 07:10:48;;;;;;;26.73;12.60;;;;;;;4.26;65.15;102230.19;5027161;28;20045;-62
2021/12/22 07:13:15;;;;;;;25.25;12.60;;;;;;;4.22;65.20;102241.50;5019298;28;20049;-62
2021/12/22 07:15:45;;;;;;;24.25;12.75;;;;;;;4.24;64.77;102248.41;5031045;28;20061;-60
2021/12/22 07:18:12;;;;;;;26.17;13.00;;;;;;;4.23;64.81;102251.88;5035520;28;20114;-64
2021/12/22 07:20:40;;;;;;;21.80;12.85;;;;;;;4.23;64.70;102258.81;5048609;28;20128;-61
2021/12/22 07:23:06;;;;;;;20.73;12.82;;;;;;;4.29;64.39;102258.78;5046772;28;20128;-61
2021/12/22 07:25:34;;;;;;;25.60;13.68;;;;;;;4.36;64.29;102257.00;5048999;28;20041;-60
2021/12/22 07:28:00;;;;;;;23.98;14.32;;;;;;;4.47;63.98;102259.50;5045817;28;20049;-61
2021/12/22 07:30:27;;;;;;;28.55;16.00;;;;;;;4.54;63.89;102263.81;5050270;28;20103;-61
2021/12/22 07:32:59;;;;;;;23.63;14.65;;;;;;;4.61;63.77;102265.50;5032534;28;20053;-61
2021/12/22 07:35:48;;;;;;;21.77;13.85;;;;;;;4.67;63.83;102262.84;5030424;28;20044;-60
2021/12/22 07:38:24;;;;;;;24.45;13.45;;;;;;;4.70;63.94;102270.63;5042378;28;20060;-61
2021/12/22 07:40:52;;;;;;;24.17;13.70;;;;;;;4.76;63.71;102268.84;5049067;28;20917;-63
2021/12/22 07:43:23;;;;;;;22.83;14.25;;;;;;;4.81;63.69;102274.88;5044458;28;20045;-63
2021/12/22 07:45:51;;;;;;;31.35;16.77;;;;;;;4.87;63.69;102280.03;5045271;28;20159;-63
2021/12/22 07:48:18;;;;;;;23.63;16.33;;;;;;;4.94;63.67;102281.72;5045809;28;20041;-63
2021/12/22 07:50:44;;;;;;;28.05;18.83;;;;;;;4.98;63.71;102277.34;5048012;28;20037;-60
2021/12/22 07:53:11;;;;;;;25.90;17.65;;;;;;;5.01;63.50;102280.78;5047780;28;20519;-61
2021/12/22 07:55:38;;;;;;;20.85;13.27;;;;;;;5.06;63.52;102283.34;5046036;28;20057;-61
2021/12/22 07:58:07;;;;;;;19.83;12.38;;;;;;;5.06;63.42;102291.16;5047804;28;20095;-60
2021/12/22 08:00:36;;;;;;;24.45;13.18;;;;;;;5.07;63.42;102291.13;5045978;28;20391;-61
2021/12/22 08:03:03;;;;;;;23.63;13.13;;;;;;;5.13;63.19;102285.03;5044032;28;20068;-61
2021/12/22 08:05:51;;;;;;;28.13;14.02;;;;;;;5.20;63.09;102296.22;5046869;28;20091;-62
2021/12/22 08:08:18;;;;;;;28.17;13.88;;;;;;;5.20;63.01;102297.09;5048410;28;20094;-61
2021/12/22 08:10:49;;;;;;;18.63;12.10;;;;;;;5.32;62.65;102293.53;5048143;28;20040;-61
2021/12/22 08:13:15;;;;;;;24.55;14.75;;;;;;;5.46;62.36;102297.72;5046604;28;20044;-61
2021/12/22 08:15:43;;;;;;;22.85;14.27;;;;;;;5.56;62.26;102305.44;5046734;28;20044;-61
2021/12/22 08:18:10;;;;;;;24.70;14.98;;;;;;;5.72;61.81;102302.66;5043151;28;20091;-61
2021/12/22 08:20:37;;;;;;;27.65;14.82;;;;;;;5.95;61.19;102309.34;5044694;28;20091;-63
2021/12/22 08:23:04;;;;;;;19.15;12.88;;;;;;;6.13;60.88;102316.09;5045418;28;20041;-61
2021/12/22 08:25:31;;;;;;;23.73;13.43;;;;;;;6.37;60.27;102307.09;5047862;28;20516;-60
2021/12/22 08:27:57;;;;;;;22.58;13.70;;;;;;;6.58;59.85;102308.53;5045511;28;20048;-61
2021/12/22 08:30:24;;;;;;;22.40;14.60;;;;;;;6.81;59.19;102307.34;5045969;28;20056;-61
2021/12/22 08:32:51;;;;;;;25.45;13.38;;;;;;;7.03;58.91;102305.22;5045571;28;20045;-61
2021/12/22 08:35:20;;;;;;;22.95;14.63;;;;;;;7.31;58.16;102304.75;5040240;28;20052;-60
2021/12/22 08:40:32;;;;;;;22.63;14.20;;;;;;;7.78;57.37;102310.00;5047293;28;20139;-60
2021/12/22 08:42:59;;;;;;;25.38;14.27;;;;;;;7.98;56.90;102305.22;5047502;28;20044;-61
2021/12/22 08:45:26;;;;;;;20.60;13.55;;;;;;;8.16;56.66;102309.22;5048664;28;20587;-60
2021/12/22 08:47:52;;;;;;;24.85;14.60;;;;;;;8.45;56.09;102306.84;5045599;28;20138;-61
2021/12/22 08:50:24;;;;;;;23.80;15.45;;;;;;;8.57;55.86;102306.63;5044164;28;20420;-61
2021/12/22 08:52:51;;;;;;;24.08;14.70;;;;;;;8.73;55.37;102311.50;5043883;28;20041;-60
2021/12/22 08:55:18;;;;;;;29.73;15.63;;;;;;;8.86;55.21;102309.44;5043868;28;20055;-61
2021/12/22 08:57:44;;;;;;;25.50;15.45;;;;;;;9.01;54.71;102310.81;5046667;28;20071;-61
2021/12/22 09:00:12;;;;;;;23.88;14.75;;;;;;;9.18;54.63;102315.63;5045163;28;20048;-61
2021/12/22 09:02:40;;;;;;;23.70;16.05;;;;;;;9.32;54.23;102319.63;5044790;28;20128;-61
2021/12/22 09:05:09;;;;;;;21.67;16.23;;;;;;;9.49;53.93;102315.69;5026186;28;20046;-60
2021/12/22 09:07:36;;;;;;;30.77;16.80;;;;;;;9.71;53.60;102325.59;5039590;28;20576;-61
2021/12/22 09:10:03;;;;;;;24.10;16.33;;;;;;;9.84;53.24;102324.38;5027382;28;20510;-62
2021/12/22 09:12:31;;;;;;;24.60;16.65;;;;;;;9.95;53.00;102326.66;5029037;28;20049;-62
2021/12/22 09:14:59;;;;;;;26.50;16.55;;;;;;;10.07;53.15;102331.56;5028612;28;20050;-62
2021/12/22 09:17:26;;;;;;;23.42;15.65;;;;;;;10.22;52.59;102325.03;5028668;28;20046;-64
2021/12/22 09:19:53;;;;;;;23.80;15.95;;;;;;;10.34;52.49;102328.19;5028621;28;20049;-65
2021/12/22 09:22:21;;;;;;;25.23;16.27;;;;;;;10.47;52.18;102323.44;5043108;28;20052;-63
2021/12/22 09:24:49;;;;;;;26.48;15.52;;;;;;;10.60;51.86;102325.66;5042315;28;20395;-62
2021/12/22 09:27:16;;;;;;;24.05;16.27;;;;;;;10.71;51.68;102325.28;5026682;28;20505;-62
2021/12/22 09:29:43;;;;;;;24.88;16.02;;;;;;;10.85;51.54;102335.38;5027868;28;20490;-64
2021/12/22 09:32:15;;;;;;;24.75;17.05;;;;;;;10.95;51.24;102334.16;5028253;28;20148;-64
2021/12/22 09:34:43;;;;;;;25.92;17.55;;;;;;;11.08;50.93;102336.38;5027810;28;20132;-64
2021/12/22 09:37:10;;;;;;;24.00;16.02;;;;;;;11.21;50.92;102336.81;5028072;28;20057;-64
2021/12/22 09:39:37;;;;;;;24.58;17.08;;;;;;;11.28;50.61;102339.19;5028286;28;20045;-64
2021/12/22 09:42:05;;;;;;;25.52;16.50;;;;;;;11.37;50.45;102345.06;5026964;28;20057;-65
2021/12/22 09:44:37;;;;;;;27.80;16.90;;;;;;;11.42;50.59;102351.88;5028704;28;20045;-65
2021/12/22 09:47:04;;;;;;;26.33;17.15;;;;;;;11.51;50.23;102352.47;5028096;28;20054;-64
2021/12/22 09:52:19;;;;;;;30.15;19.08;;;;;;;11.73;49.52;102350.81;5028267;28;20417;-64
2021/12/22 09:55:10;;;;;;;29.48;17.45;;;;;;;11.81;49.25;102344.41;5028719;28;20867;-64
2021/12/22 09:57:37;;;;;;;24.92;16.90;;;;;;;11.85;49.24;102346.88;5023004;28;20488;-65
2021/12/22 10:00:09;;;;;;;28.33;17.08;;;;;;;11.94;48.76;102335.16;5027099;28;20046;-64
2021/12/22 10:02:38;;;;;;;24.92;16.75;;;;;;;12.00;48.44;102347.25;5028398;28;20045;-64
2021/12/22 10:05:05;;;;;;;25.77;17.15;;;;;;;12.04;48.17;102352.34;5028039;28;20053;-65
2021/12/22 10:07:37;;;;;;;27.35;17.35;;;;;;;12.08;48.00;102342.56;5027713;28;20076;-64
2021/12/22 10:10:09;;;;;;;24.45;17.15;;;;;;;12.17;48.04;102333.47;5028090;28;20107;-63
2021/12/22 10:12:36;;;;;;;32.08;16.25;;;;;;;12.21;47.89;102335.94;5028630;28;20452;-64
2021/12/22 10:15:06;;;;;;;43.05;28.08;;;;;;;12.31;47.71;102336.44;5028320;28;20056;-64
2021/12/22 10:17:38;;;;;;;37.22;23.30;;;;;;;12.35;47.32;102338.03;5027481;28;20455;-64
2021/12/22 10:20:14;;;;;;;37.95;25.02;;;;;;;12.41;47.30;102331.69;5027947;28;20132;-64
2021/12/22 10:22:44;;;;;;;81.20;46.35;;;;;;;12.50;47.03;102323.41;5028097;28;20547;-70
2021/12/22 10:25:16;;;;;;;42.50;25.40;;;;;;;12.58;46.80;102318.72;5028687;28;20049;-65
2021/12/22 10:27:56;;;;;;;26.80;17.67;;;;;;;12.63;47.05;102315.88;5027734;28;20100;-65
2021/12/22 10:30:33;;;;;;;25.00;16.20;;;;;;;12.70;46.51;102320.00;5028340;28;20064;-64
2021/12/22 10:33:18;;;;;;;24.33;15.10;;;;;;;12.73;46.26;102314.63;5026422;28;20047;-64
2021/12/22 10:35:50;;;;;;;23.10;16.38;;;;;;;12.78;46.11;102317.03;5028067;28;20049;-64
2021/12/22 10:38:21;;;;;;;19.13;14.32;;;;;;;12.83;45.93;102315.06;5027921;28;20060;-64
2021/12/22 10:40:51;;;;;;;22.63;15.68;;;;;;;12.83;46.09;102312.44;5026270;28;20454;-64
2021/12/22 10:43:27;;;;;;;20.85;15.23;;;;;;;12.87;45.71;102305.28;5027778;28;20060;-64
2021/12/22 10:46:00;;;;;;;21.33;15.02;;;;;;;12.86;45.71;102296.53;5030943;28;20045;-64
2021/12/22 10:51:38;;;;;;;21.33;15.10;;;;;;;12.73;45.91;102298.81;5048511;28;20069;-64
2021/12/22 10:54:08;;;;;;;;;;;;;;;12.61;46.11;102293.16;5048834;28;20448;-64
2021/12/22 10:56:39;;;;;;;19.55;13.45;;;;;;;12.49;46.30;102294.50;5042315;28;19920;-64
2021/12/22 10:59:16;;;;;;;12.38;8.77;;;;;;;12.40;46.47;102296.59;5046819;28;20051;-64
2021/12/22 11:01:57;;;;;;;10.90;7.93;;;;;;;12.24;46.48;102298.97;5048388;28;20067;-64
2021/12/22 11:04:28;;;;;;;13.23;8.23;;;;;;;12.05;46.63;102293.56;5044243;28;20516;-64
2021/12/22 11:07:07;;;;;;;12.60;7.35;;;;;;;11.86;46.58;102301.25;5048732;28;20091;-64
2021/12/22 11:09:36;;;;;;;8.63;5.22;;;;;;;11.65;46.82;102302.03;5046874;28;20118;-64
2021/12/22 11:12:05;;;;;;;8.43;5.53;;;;;;;11.40;47.11;102301.13;5049350;28;20041;-65
2021/12/22 11:14:38;;;;;;;10.57;6.43;;;;;;;11.15;47.28;102301.13;5047591;28;20087;-63
2021/12/22 11:17:05;;;;;;;8.65;6.22;;;;;;;10.94;47.76;102298.31;5047633;28;20045;-64
2021/12/22 11:19:58;;;;;;;12.27;7.53;;;;;;;10.72;47.73;102298.13;5046171;28;20046;-64
2021/12/22 11:22:51;;;;;;;9.23;6.18;;;;;;;10.62;48.15;102294.09;5048385;28;20044;-61
2021/12/22 11:25:20;;;;;;;6.75;5.07;;;;;;;11.34;47.77;102296.09;5046486;28;20037;-63
2021/12/22 11:27:50;;;;;;;11.00;6.07;;;;;;;11.51;48.86;102289.38;5042192;28;20050;-63
2021/12/22 11:30:17;;;;;;;8.80;6.25;;;;;;;11.08;49.49;102291.72;5033425;28;20073;-64
2021/12/22 11:32:44;;;;;;;10.13;6.50;;;;;;;10.80;49.42;102294.41;5029382;28;20498;-63
2021/12/22 11:35:14;;;;;;;10.10;6.57;;;;;;;10.61;49.40;102287.13;5027159;28;20042;-64
2021/12/22 11:37:41;;;;;;;8.10;5.28;;;;;;;10.49;49.42;102284.88;5031718;28;20057;-63
2021/12/22 11:40:10;;;;;;;9.00;5.18;;;;;;;10.29;49.27;102284.56;5019494;28;20045;-63
2021/12/22 11:42:39;;;;;;;8.18;5.82;;;;;;;10.29;49.11;102287.19;5013281;28;20049;-63
2021/12/22 11:45:18;;;;;;;8.57;5.90;;;;;;;10.22;48.93;102279.53;5033256;28;20077;-63
2021/12/22 11:47:48;;;;;;;11.27;6.45;;;;;;;10.18;48.82;102284.03;5044607;28;20041;-63
2021/12/22 11:50:17;;;;;;;9.73;6.25;;;;;;;10.14;48.74;102274.53;5032793;28;20068;-64